Terminal Aerodrome Forecast
Issued by NWS Detroit/Pontiac, MI

Home | Current Version | Previous Version | Text Only | Print | Product List | Glossary On
Versions: 1 2 3 4 5 6 7 8 9 10 11 12 13 14 15 16 17 18 19 20 21 22
000
FTUS43 KDTX 241345 AAB
TAFFNT
TAF AMD
KFNT 241345Z 2414/2512 09012KT 1SM -DZ BR OVC002
     FM241500 11012KT 1SM -TSRA OVC004CB
     FM241600 11012KT 3SM -RA BR BKN008 OVC015
     FM241800 13008KT P6SM OVC012
     FM242000 17012KT 5SM -SHRA OVC018
     FM250100 18012G18KT 5SM -SHRA SCT008 OVC018 PROB30 2503/2506
      3SM TSRA OVC008CB
     FM250600 24012G20KT 6SM BR OVC010=

USA.gov is the U.S. government's official web portal to all federal, state and local government web resources and services.